Time;durP1;ratioP1;P1;durP2;ratioP2;P2;SDS_P1;SDS_P2;PMS_P1;PMS_P2;Temp;Humidity;BMP_temperature;BMP_pressure;BME280_temperature;BME280_humidity;BME280_pressure;Samples;Min_cycle;Max_cycle;Signal;HPM_P1;HPM_P2
2022/11/19 00:02:05;;;;;;;0.90;0.85;;;4.60;99.90;;;;;;4702712;30;20492;-83
2022/11/19 00:04:39;;;;;;;0.73;0.73;;;4.60;99.90;;;;;;4716161;30;20393;-81
2022/11/19 00:07:06;;;;;;;0.93;0.80;;;4.60;99.90;;;;;;4716147;30;20068;-82
2022/11/19 00:09:33;;;;;;;0.85;0.85;;;4.60;99.90;;;;;;4702645;30;20056;-81
2022/11/19 00:14:47;;;;;;;0.90;0.90;;;4.60;99.90;;;;;;4717779;30;20049;-83
2022/11/19 00:17:14;;;;;;;0.77;0.77;;;4.60;99.90;;;;;;4717232;30;20404;-82
2022/11/19 00:19:41;;;;;;;1.20;1.10;;;4.70;99.90;;;;;;4715824;30;20049;-82
2022/11/19 00:22:09;;;;;;;2.08;1.17;;;4.70;99.90;;;;;;4727392;30;20059;-82
2022/11/19 00:24:36;;;;;;;1.30;1.00;;;4.70;99.90;;;;;;4734776;30;20056;-82
2022/11/19 00:27:04;;;;;;;1.20;1.20;;;4.70;99.90;;;;;;4734561;30;20060;-82
2022/11/19 00:29:31;;;;;;;2.42;1.30;;;4.70;99.90;;;;;;4704576;30;20542;-82
2022/11/19 00:31:58;;;;;;;0.90;0.85;;;4.80;99.90;;;;;;4733484;30;20049;-82
2022/11/19 00:35:08;;;;;;;1.05;1.05;;;4.80;99.90;;;;;;4734565;30;20056;-82
2022/11/19 00:37:36;;;;;;;0.85;0.85;;;4.80;99.90;;;;;;4732510;30;20060;-82
2022/11/19 00:40:06;;;;;;;1.17;1.08;;;4.80;99.90;;;;;;4733560;30;20400;-82
2022/11/19 00:42:34;;;;;;;1.10;1.02;;;4.80;99.90;;;;;;4734037;30;20063;-82
2022/11/19 00:45:01;;;;;;;0.90;0.90;;;4.70;99.90;;;;;;4734619;30;20053;-82
2022/11/19 00:47:29;;;;;;;1.35;1.25;;;4.70;99.90;;;;;;4733315;30;20506;-81
2022/11/19 00:49:56;;;;;;;1.05;0.93;;;4.70;99.90;;;;;;4734752;30;20075;-83
2022/11/19 00:52:23;;;;;;;3.03;1.52;;;4.70;99.90;;;;;;4717449;30;20437;-82
2022/11/19 00:54:50;;;;;;;1.77;1.67;;;4.70;99.90;;;;;;4716916;30;20076;-83
2022/11/19 00:57:18;;;;;;;2.00;1.38;;;4.70;99.90;;;;;;4717182;30;20057;-83
2022/11/19 00:59:45;;;;;;;1.83;1.73;;;4.70;99.90;;;;;;4717124;30;20053;-82
2022/11/19 01:02:12;;;;;;;1.60;1.40;;;4.70;99.90;;;;;;4716441;30;20065;-83
2022/11/19 01:05:14;;;;;;;1.52;1.42;;;4.70;99.90;;;;;;4716689;30;20049;-82
2022/11/19 01:07:42;;;;;;;3.17;1.60;;;4.70;99.90;;;;;;4716544;30;20057;-82
2022/11/19 01:10:09;;;;;;;1.48;1.38;;;4.70;99.90;;;;;;4717525;30;20488;-83
2022/11/19 01:13:33;;;;;;;1.33;1.25;;;4.70;99.90;;;;;;4717065;30;20050;-82
2022/11/19 01:15:24;;;;;;;1.33;1.13;;;4.70;99.90;;;;;;4716903;30;20053;-82
2022/11/19 01:17:51;;;;;;;2.83;1.63;;;4.70;99.90;;;;;;4716888;30;20477;-82
2022/11/19 01:20:18;;;;;;;1.85;1.70;;;4.70;99.90;;;;;;4716545;30;20057;-82
2022/11/19 01:22:46;;;;;;;1.30;1.20;;;4.70;99.90;;;;;;4716209;30;20433;-81
2022/11/19 01:25:13;;;;;;;1.67;1.58;;;4.80;99.90;;;;;;4715351;30;20057;-82
2022/11/19 01:27:40;;;;;;;1.63;1.52;;;4.90;99.90;;;;;;4716761;30;20072;-83
2022/11/19 01:30:09;;;;;;;1.42;1.33;;;4.80;99.90;;;;;;4717151;30;20400;-82
2022/11/19 01:32:36;;;;;;;2.08;1.63;;;4.90;99.90;;;;;;4716646;30;20056;-82
2022/11/19 01:35:41;;;;;;;1.63;1.50;;;4.90;99.90;;;;;;4716401;30;20049;-83
2022/11/19 01:38:09;;;;;;;1.55;1.27;;;4.90;99.90;;;;;;4730304;30;20075;-82
2022/11/19 01:40:44;;;;;;;2.15;1.95;;;4.90;99.90;;;;;;4719580;30;20064;-83
2022/11/19 01:43:12;;;;;;;1.88;1.48;;;4.90;99.90;;;;;;4728366;30;20096;-82
2022/11/19 01:45:42;;;;;;;5.40;1.95;;;4.90;99.90;;;;;;4737876;30;20060;-83
2022/11/19 01:48:18;;;;;;;1.88;1.50;;;4.90;99.90;;;;;;4720617;30;20606;-82
2022/11/19 01:50:55;;;;;;;2.13;1.50;;;4.80;99.90;;;;;;4715815;30;20509;-83
2022/11/19 01:53:28;;;;;;;3.13;2.83;;;4.80;99.90;;;;;;4717711;30;20416;-83
2022/11/19 01:56:02;;;;;;;2.03;1.77;;;4.80;99.90;;;;;;4720024;30;20064;-83
2022/11/19 01:58:35;;;;;;;1.98;1.88;;;4.80;99.90;;;;;;4720375;30;20045;-81
2022/11/19 02:01:03;;;;;;;4.50;1.70;;;4.80;99.90;;;;;;4733458;30;20415;-82
2022/11/19 02:03:38;;;;;;;1.98;1.88;;;4.80;99.90;;;;;;4738371;30;20063;-82
2022/11/19 02:06:10;;;;;;;1.92;1.52;;;4.80;99.90;;;;;;4719020;30;20064;-82
2022/11/19 02:08:48;;;;;;;1.77;1.33;;;4.80;99.90;;;;;;4704341;30;20053;-83
2022/11/19 02:11:25;;;;;;;1.80;1.70;;;4.90;99.90;;;;;;4719521;30;20755;-82
2022/11/19 02:14:01;;;;;;;2.03;1.92;;;4.90;99.90;;;;;;4734857;30;20056;-82
2022/11/19 02:16:46;;;;;;;4.45;3.67;;;4.90;99.90;;;;;;4754288;30;20415;-82
2022/11/19 02:19:32;;;;;;;2.50;2.03;;;4.90;99.90;;;;;;4752876;30;20502;-82
2022/11/19 02:22:15;;;;;;;1.98;1.88;;;4.90;99.90;;;;;;4739096;30;20387;-83
2022/11/19 02:25:24;;;;;;;2.22;2.03;;;4.90;99.90;;;;;;4719478;30;20409;-82
2022/11/19 02:28:12;;;;;;;1.75;1.65;;;4.90;99.90;;;;;;4603626;31;20050;-82
2022/11/19 02:30:45;;;;;;;4.15;2.88;;;4.90;99.90;;;;;;4717789;30;20397;-82
2022/11/19 02:33:54;;;;;;;4.00;2.03;;;4.90;99.90;;;;;;4719006;30;20057;-83
2022/11/19 02:36:27;;;;;;;3.85;1.58;;;5.00;99.90;;;;;;4719187;30;20057;-82
2022/11/19 02:39:01;;;;;;;1.95;1.80;;;4.90;99.90;;;;;;4689009;30;20060;-83
2022/11/19 02:41:49;;;;;;;2.42;1.90;;;4.90;99.90;;;;;;4704046;30;20057;-82
2022/11/19 02:47:21;;;;;;;2.92;2.00;;;4.90;99.90;;;;;;4718919;30;20049;-83
2022/11/19 02:49:52;;;;;;;2.08;1.67;;;4.90;99.90;;;;;;4703576;30;20060;-83
2022/11/19 02:52:20;;;;;;;2.92;2.22;;;4.90;99.90;;;;;;4717743;30;20060;-83
2022/11/19 02:54:47;;;;;;;3.13;1.90;;;4.90;99.90;;;;;;4701647;30;20045;-83
2022/11/19 02:57:15;;;;;;;1.77;1.67;;;4.90;99.90;;;;;;4701965;30;20370;-83
2022/11/19 03:05:36;;;;;;;8.98;3.42;;;4.90;99.90;;;;;;4686066;30;20061;-84
2022/11/19 03:08:04;;;;;;;2.35;2.00;;;4.90;99.90;;;;;;4685878;30;20053;-82
2022/11/19 03:10:43;;;;;;;4.30;1.50;;;4.90;99.90;;;;;;4701840;30;20054;-82
2022/11/19 03:19:05;;;;;;;1.83;1.73;;;4.90;99.90;;;;;;4700681;30;20050;-81
2022/11/19 03:21:46;;;;;;;1.73;1.63;;;4.90;99.90;;;;;;4701797;30;20081;-82
2022/11/19 03:24:36;;;;;;;4.18;2.88;;;4.90;99.90;;;;;;4715621;30;20427;-82
2022/11/19 03:27:11;;;;;;;1.52;1.42;;;4.90;99.90;;;;;;4709463;30;20064;-82
2022/11/19 03:29:44;;;;;;;6.57;3.30;;;4.90;99.90;;;;;;4718933;30;20064;-82
2022/11/19 03:32:22;;;;;;;1.77;1.67;;;4.90;99.90;;;;;;4731773;30;20049;-81
2022/11/19 03:35:25;;;;;;;1.75;1.60;;;4.90;99.90;;;;;;4716546;30;20504;-83
2022/11/19 03:37:55;;;;;;;13.77;2.33;;;5.00;99.90;;;;;;4718592;30;20042;-81
2022/11/19 03:40:25;;;;;;;1.35;1.25;;;4.90;99.90;;;;;;4718292;30;20416;-83
2022/11/19 03:42:55;;;;;;;2.28;1.25;;;5.00;99.90;;;;;;4734229;30;20061;-83
2022/11/19 03:45:26;;;;;;;15.20;3.92;;;5.00;99.90;;;;;;4735942;30;20057;-82
2022/11/19 03:47:55;;;;;;;2.65;2.00;;;4.90;99.90;;;;;;4734124;30;20053;-83
2022/11/19 03:50:38;;;;;;;1.88;1.33;;;4.90;99.90;;;;;;4735642;30;20060;-82
2022/11/19 03:53:05;;;;;;;2.33;1.33;;;4.90;99.90;;;;;;4733972;30;20057;-82
2022/11/19 03:55:38;;;;;;;1.77;1.30;;;4.90;99.90;;;;;;4733997;30;20048;-83
2022/11/19 03:58:09;;;;;;;1.20;1.08;;;4.90;99.90;;;;;;4735241;30;20060;-83
2022/11/19 04:00:36;;;;;;;1.40;1.40;;;4.80;99.90;;;;;;4734027;30;20088;-83
2022/11/19 04:03:04;;;;;;;1.55;1.45;;;4.80;99.90;;;;;;4733256;30;20060;-83
2022/11/19 04:05:35;;;;;;;2.97;1.20;;;4.80;99.90;;;;;;4734308;30;20514;-82
2022/11/19 04:08:02;;;;;;;1.63;1.52;;;4.80;99.90;;;;;;4734015;30;20431;-82
2022/11/19 04:10:30;;;;;;;1.45;1.35;;;4.80;99.90;;;;;;4719916;30;20060;-83
2022/11/19 04:12:57;;;;;;;1.20;1.10;;;4.80;99.90;;;;;;4735144;30;20068;-83
2022/11/19 04:15:25;;;;;;;2.20;1.80;;;4.80;99.90;;;;;;4733787;30;20048;-83
2022/11/19 04:17:52;;;;;;;1.33;1.33;;;4.80;99.90;;;;;;4735648;30;20048;-83
2022/11/19 04:20:19;;;;;;;1.45;1.35;;;4.90;99.90;;;;;;4716506;30;20492;-83
2022/11/19 04:22:50;;;;;;;1.40;1.30;;;4.90;99.90;;;;;;4717639;30;20061;-83
2022/11/19 04:25:18;;;;;;;3.97;3.70;;;4.90;99.90;;;;;;4702403;30;20057;-83
2022/11/19 04:27:46;;;;;;;3.80;1.10;;;4.90;99.90;;;;;;4715796;30;20056;-83
2022/11/19 04:30:13;;;;;;;2.08;1.52;;;4.80;99.90;;;;;;4717623;30;20068;-84
2022/11/19 04:32:41;;;;;;;1.40;1.30;;;4.90;99.90;;;;;;4717338;30;20061;-84
2022/11/19 04:35:48;;;;;;;1.05;1.05;;;4.80;99.90;;;;;;4715792;30;20393;-83
2022/11/19 04:38:15;;;;;;;1.35;1.30;;;4.80;99.90;;;;;;4731075;30;20060;-83
2022/11/19 04:40:42;;;;;;;4.32;1.40;;;4.80;99.90;;;;;;4715775;30;20060;-84
2022/11/19 04:47:01;;;;;;;1.30;1.20;;;4.80;99.90;;;;;;4709726;30;20072;-83
2022/11/19 04:49:29;;;;;;;1.23;1.13;;;4.70;99.90;;;;;;4717244;30;20057;-84
2022/11/19 04:51:56;;;;;;;3.08;1.45;;;4.70;99.90;;;;;;4717127;30;20045;-83
2022/11/19 04:54:23;;;;;;;1.38;1.00;;;4.70;99.90;;;;;;4731642;30;20064;-84
2022/11/19 04:56:51;;;;;;;2.15;1.52;;;4.70;99.90;;;;;;4734378;30;20057;-84
2022/11/19 04:59:18;;;;;;;1.38;1.20;;;4.70;99.90;;;;;;4734466;30;20069;-83
2022/11/19 05:01:46;;;;;;;1.10;1.10;;;4.70;99.90;;;;;;4733985;30;20056;-84
2022/11/19 05:04:20;;;;;;;1.42;1.33;;;4.70;99.90;;;;;;4732953;30;20681;-84
2022/11/19 05:06:47;;;;;;;1.67;1.58;;;4.70;99.90;;;;;;4732848;30;20056;-84
2022/11/19 05:09:15;;;;;;;0.98;0.98;;;4.70;99.90;;;;;;4734818;30;20400;-83
2022/11/19 05:11:43;;;;;;;0.93;0.80;;;4.70;99.90;;;;;;4734588;30;20049;-84
2022/11/19 05:14:10;;;;;;;1.25;1.10;;;4.70;99.90;;;;;;4733254;30;20067;-84
2022/11/19 05:16:37;;;;;;;2.90;1.17;;;4.70;99.90;;;;;;4734187;30;20056;-83
2022/11/19 05:19:05;;;;;;;1.25;1.00;;;4.60;99.90;;;;;;4732749;30;20495;-83
2022/11/19 05:21:32;;;;;;;4.00;1.10;;;4.60;99.90;;;;;;4733507;30;20434;-84
2022/11/19 05:23:59;;;;;;;1.00;1.00;;;4.60;99.90;;;;;;4732919;30;20056;-83
2022/11/19 05:26:27;;;;;;;1.60;1.52;;;4.60;99.90;;;;;;4718750;30;20060;-84
2022/11/19 05:28:54;;;;;;;1.33;1.23;;;4.50;99.90;;;;;;4718183;30;20064;-83
2022/11/19 05:31:21;;;;;;;1.60;1.50;;;4.50;99.90;;;;;;4732947;30;20053;-83
2022/11/19 05:33:55;;;;;;;0.80;0.80;;;4.50;99.90;;;;;;4732811;30;20518;-84
2022/11/19 05:36:22;;;;;;;1.00;0.90;;;4.50;99.90;;;;;;4732297;30;20571;-84
2022/11/19 05:38:50;;;;;;;1.40;1.35;;;4.60;99.90;;;;;;4734042;30;20053;-84
2022/11/19 05:41:17;;;;;;;4.22;1.52;;;4.50;99.90;;;;;;4704353;30;20052;-84
2022/11/19 05:43:44;;;;;;;1.42;1.33;;;4.60;99.90;;;;;;4715336;30;20045;-83
2022/11/19 05:46:12;;;;;;;3.90;1.23;;;4.60;99.90;;;;;;4717028;30;20064;-84
2022/11/19 05:48:39;;;;;;;0.90;0.90;;;4.50;99.90;;;;;;4700650;30;20049;-83
2022/11/19 05:51:06;;;;;;;1.63;1.52;;;4.50;99.90;;;;;;4716495;30;20053;-83
2022/11/19 05:53:34;;;;;;;0.80;0.80;;;4.60;99.90;;;;;;4701311;30;20072;-84
2022/11/19 05:56:01;;;;;;;1.38;1.27;;;4.60;99.90;;;;;;4700545;30;20868;-83
2022/11/19 05:58:28;;;;;;;3.17;1.83;;;4.60;99.90;;;;;;4701340;30;20056;-84
2022/11/19 06:00:58;;;;;;;2.17;1.60;;;4.50;99.90;;;;;;4701111;30;20393;-83
2022/11/19 06:03:25;;;;;;;1.08;1.08;;;4.60;99.90;;;;;;4700825;30;20061;-83
2022/11/19 06:05:53;;;;;;;0.85;0.85;;;4.60;99.90;;;;;;4715712;30;20057;-83
2022/11/19 06:08:20;;;;;;;2.53;1.10;;;4.60;99.90;;;;;;4700224;30;20049;-84
2022/11/19 06:10:48;;;;;;;1.58;1.48;;;4.60;99.90;;;;;;4729850;30;20061;-83
2022/11/19 06:13:15;;;;;;;1.17;1.13;;;4.70;99.90;;;;;;4715701;30;20053;-83
2022/11/19 06:15:43;;;;;;;1.45;1.27;;;4.70;99.90;;;;;;4715120;30;20083;-84
2022/11/19 06:18:10;;;;;;;1.23;1.13;;;4.60;99.90;;;;;;4700892;30;20424;-85
2022/11/19 06:20:37;;;;;;;2.08;0.93;;;4.60;99.90;;;;;;4731849;30;20052;-85
2022/11/19 06:23:05;;;;;;;1.13;1.00;;;4.60;99.90;;;;;;4718120;30;20063;-85
2022/11/19 06:25:32;;;;;;;1.10;1.02;;;4.60;99.90;;;;;;4734167;30;20052;-83
2022/11/19 06:28:00;;;;;;;1.15;1.15;;;4.50;99.90;;;;;;4736562;30;20059;-83
2022/11/19 06:30:27;;;;;;;0.63;0.63;;;4.50;99.90;;;;;;4736055;30;20063;-82
2022/11/19 06:32:54;;;;;;;0.85;0.85;;;4.50;99.90;;;;;;4736994;30;20540;-83
2022/11/19 06:35:22;;;;;;;1.25;1.02;;;4.40;99.90;;;;;;4736327;30;20055;-84
2022/11/19 06:37:49;;;;;;;4.32;2.50;;;4.40;99.90;;;;;;4736844;30;20065;-83
2022/11/19 06:40:16;;;;;;;1.63;1.52;;;4.30;99.90;;;;;;4736747;30;20846;-83
2022/11/19 06:42:44;;;;;;;0.98;0.98;;;4.30;99.90;;;;;;4736132;30;20056;-83
2022/11/19 06:45:17;;;;;;;1.50;1.40;;;4.30;99.90;;;;;;4736306;30;20055;-83
2022/11/19 06:47:47;;;;;;;1.02;1.02;;;4.40;99.90;;;;;;4736718;30;20045;-83
2022/11/19 06:50:15;;;;;;;1.60;1.50;;;4.40;99.90;;;;;;4735816;30;20041;-84
2022/11/19 06:52:42;;;;;;;1.10;1.00;;;4.50;99.90;;;;;;4735618;30;20060;-84
2022/11/19 06:55:10;;;;;;;2.45;2.28;;;4.50;99.90;;;;;;4735302;30;20049;-83
2022/11/19 06:57:37;;;;;;;1.13;1.13;;;4.50;99.90;;;;;;4736771;30;20052;-83
2022/11/19 07:00:05;;;;;;;1.73;1.42;;;4.60;99.90;;;;;;4736347;30;20068;-83
2022/11/19 07:02:32;;;;;;;1.55;1.45;;;4.60;99.90;;;;;;4735810;30;20419;-83
2022/11/19 07:05:09;;;;;;;0.70;0.70;;;4.70;99.90;;;;;;4720251;30;20063;-83
2022/11/19 07:07:36;;;;;;;1.95;1.33;;;4.70;99.90;;;;;;4734990;30;20060;-83
2022/11/19 07:10:04;;;;;;;0.95;0.93;;;4.80;99.90;;;;;;4706394;30;20068;-84
2022/11/19 07:12:32;;;;;;;2.20;1.38;;;4.90;99.90;;;;;;4735257;30;20059;-83
2022/11/19 07:14:59;;;;;;;1.33;1.23;;;4.90;99.90;;;;;;4720441;30;20423;-83
2022/11/19 07:17:30;;;;;;;;;;;4.90;99.90;;;;;;4721574;30;20519;-84
2022/11/19 07:19:58;;;;;;;1.02;0.90;;;4.90;99.90;;;;;;4720227;30;19934;-84
2022/11/19 07:22:26;;;;;;;0.80;0.80;;;5.00;99.90;;;;;;4735265;30;20053;-84
2022/11/19 07:24:53;;;;;;;1.33;0.80;;;5.00;99.90;;;;;;4734707;30;20063;-83
2022/11/19 07:27:21;;;;;;;1.27;1.08;;;5.00;99.90;;;;;;4705701;30;20044;-83
2022/11/19 07:29:48;;;;;;;1.17;1.08;;;5.00;99.90;;;;;;4735142;30;20060;-83
2022/11/19 07:32:15;;;;;;;1.23;1.13;;;5.00;99.90;;;;;;4734651;30;20052;-84
2022/11/19 07:34:43;;;;;;;1.88;1.20;;;5.00;99.90;;;;;;4736043;30;20052;-82
2022/11/19 07:37:10;;;;;;;1.10;1.10;;;5.10;99.90;;;;;;4734327;30;20045;-83
2022/11/19 07:39:37;;;;;;;0.90;0.85;;;5.10;99.90;;;;;;4705842;30;20048;-84
2022/11/19 07:44:52;;;;;;;1.52;1.42;;;5.20;99.90;;;;;;4702982;30;20071;-83
2022/11/19 07:47:21;;;;;;;3.92;0.88;;;5.20;99.90;;;;;;4717857;30;20049;-84
2022/11/19 07:49:48;;;;;;;1.05;0.95;;;5.30;99.90;;;;;;4718796;30;20064;-84
2022/11/19 07:52:16;;;;;;;2.25;1.17;;;5.30;99.90;;;;;;4720095;30;20802;-84
2022/11/19 07:54:43;;;;;;;1.25;1.15;;;5.40;99.90;;;;;;4735853;30;20060;-84
2022/11/19 07:57:11;;;;;;;1.40;1.15;;;5.40;99.90;;;;;;4735442;30;20057;-84
2022/11/19 07:59:38;;;;;;;1.30;1.20;;;5.40;99.90;;;;;;4734364;30;20600;-83
2022/11/19 08:02:05;;;;;;;0.93;0.93;;;5.50;99.90;;;;;;4734785;30;20060;-84
2022/11/19 08:04:33;;;;;;;0.80;0.80;;;5.50;99.90;;;;;;4705047;30;20066;-83
2022/11/19 08:07:00;;;;;;;0.80;0.80;;;5.50;99.90;;;;;;4734141;30;20060;-83
2022/11/19 08:09:28;;;;;;;0.85;0.85;;;5.50;99.90;;;;;;4735906;30;20060;-84
2022/11/19 08:11:55;;;;;;;1.17;1.17;;;5.50;99.90;;;;;;4735353;30;20052;-83
2022/11/19 08:14:22;;;;;;;1.80;0.75;;;5.50;99.90;;;;;;4735578;30;20060;-83
2022/11/19 08:19:35;;;;;;;0.80;0.80;;;5.60;99.90;;;;;;4748445;30;20415;-84
2022/11/19 08:22:03;;;;;;;1.77;1.67;;;5.70;99.90;;;;;;4716933;30;20068;-83
2022/11/19 08:24:30;;;;;;;2.15;1.00;;;5.80;99.90;;;;;;4717657;30;20053;-84
2022/11/19 08:26:57;;;;;;;0.63;0.63;;;5.80;99.90;;;;;;4716470;30;20060;-83
2022/11/19 08:29:25;;;;;;;1.10;1.00;;;5.80;99.90;;;;;;4716897;30;20068;-84
2022/11/19 08:31:53;;;;;;;0.80;0.80;;;5.80;99.90;;;;;;4687792;30;20386;-84
2022/11/19 08:34:23;;;;;;;0.65;0.65;;;5.90;99.90;;;;;;4716203;30;20053;-85
2022/11/19 08:36:51;;;;;;;0.70;0.70;;;6.00;99.90;;;;;;4701643;30;20060;-84
2022/11/19 08:39:18;;;;;;;0.88;0.80;;;5.90;99.90;;;;;;4701863;30;20057;-84
2022/11/19 08:44:31;;;;;;;0.93;0.93;;;5.90;99.90;;;;;;4701695;30;20057;-84
2022/11/19 08:46:59;;;;;;;2.65;1.00;;;5.90;99.90;;;;;;4701382;30;20061;-84
2022/11/19 08:49:26;;;;;;;0.95;0.93;;;6.00;99.90;;;;;;4715619;30;20070;-84
2022/11/19 08:51:53;;;;;;;1.17;0.82;;;6.10;99.90;;;;;;4701807;30;20053;-84
2022/11/19 08:54:21;;;;;;;1.10;1.00;;;6.20;99.90;;;;;;4730927;30;20049;-85
2022/11/19 08:56:49;;;;;;;1.00;1.00;;;6.20;99.90;;;;;;4715563;30;20049;-85
2022/11/19 08:59:16;;;;;;;3.40;1.73;;;6.20;99.90;;;;;;4715927;30;20048;-84
2022/11/19 09:01:44;;;;;;;2.92;0.80;;;6.20;99.90;;;;;;4717664;30;20476;-85
2022/11/19 09:05:20;;;;;;;0.93;0.82;;;6.30;99.90;;;;;;4705343;30;20044;-85
2022/11/19 09:07:47;;;;;;;0.70;0.70;;;6.30;99.90;;;;;;4731360;30;20851;-81
2022/11/19 09:10:15;;;;;;;0.90;0.90;;;6.40;99.90;;;;;;4734677;30;20052;-81
2022/11/19 09:12:43;;;;;;;2.35;0.80;;;6.50;99.90;;;;;;4732534;30;20045;-82
2022/11/19 09:15:10;;;;;;;1.00;0.90;;;6.70;99.90;;;;;;4733317;30;20048;-81
2022/11/19 09:17:38;;;;;;;3.90;2.85;;;7.40;99.90;;;;;;4734215;30;20059;-81
2022/11/19 09:20:13;;;;;;;1.17;1.13;;;7.50;99.90;;;;;;4733744;30;20049;-81
2022/11/19 09:22:40;;;;;;;1.10;1.10;;;7.20;99.90;;;;;;4734602;30;20067;-82
2022/11/19 09:25:08;;;;;;;1.95;0.90;;;6.90;99.90;;;;;;4734054;30;20045;-82
2022/11/19 09:27:38;;;;;;;1.13;1.02;;;6.80;99.90;;;;;;4733815;30;20054;-87
2022/11/19 09:30:07;;;;;;;2.35;0.80;;;7.00;99.90;;;;;;4733557;30;20049;-90
2022/11/19 09:32:35;;;;;;;1.05;1.05;;;7.20;99.90;;;;;;4718566;30;20049;-86
2022/11/19 09:35:35;;;;;;;0.85;0.85;;;7.30;99.90;;;;;;4715016;30;20053;-83
2022/11/19 09:38:02;;;;;;;1.08;0.95;;;7.50;99.90;;;;;;4716182;30;20053;-89
2022/11/19 09:40:30;;;;;;;1.15;1.05;;;7.70;99.90;;;;;;4711783;30;20055;-85
2022/11/19 09:43:33;;;;;;;0.82;0.80;;;7.70;99.90;;;;;;4732833;30;20819;-86
2022/11/19 09:46:07;;;;;;;0.93;0.93;;;7.50;99.90;;;;;;4663487;30;20066;-84
2022/11/19 09:48:36;;;;;;;1.25;1.15;;;7.30;99.90;;;;;;4721693;30;20504;-87
2022/11/19 09:51:09;;;;;;;1.45;1.13;;;7.20;99.90;;;;;;4717942;30;20492;-85
2022/11/19 09:53:47;;;;;;;1.20;1.10;;;7.10;99.90;;;;;;4718253;30;20056;-85
2022/11/19 09:56:26;;;;;;;1.70;1.20;;;7.10;99.90;;;;;;4732501;30;20053;-82
2022/11/19 09:58:55;;;;;;;0.85;0.85;;;7.10;99.90;;;;;;4733602;30;20044;-86
2022/11/19 10:01:24;;;;;;;2.08;1.92;;;7.00;99.90;;;;;;4719526;30;20067;-84
2022/11/19 10:04:03;;;;;;;2.03;1.15;;;7.10;99.90;;;;;;4721221;30;20056;-87
2022/11/19 10:06:52;;;;;;;1.10;1.10;;;7.10;99.90;;;;;;4745719;30;20052;-89
2022/11/19 10:09:40;;;;;;;1.23;1.13;;;7.10;99.90;;;;;;4735255;30;20063;-84
2022/11/19 10:12:21;;;;;;;0.75;0.75;;;7.10;99.90;;;;;;4736178;30;20061;-86
2022/11/19 10:15:00;;;;;;;1.45;1.23;;;7.20;99.90;;;;;;4721675;30;20439;-84
2022/11/19 10:17:30;;;;;;;1.10;0.90;;;7.20;99.90;;;;;;4736286;30;20488;-90
2022/11/19 10:20:13;;;;;;;1.25;1.13;;;7.10;99.90;;;;;;4735413;30;20044;-86
2022/11/19 10:22:59;;;;;;;1.42;1.33;;;7.20;99.90;;;;;;4720054;30;20049;-87
2022/11/19 10:25:39;;;;;;;1.63;1.52;;;7.30;99.90;;;;;;4705714;30;20053;-87
2022/11/19 10:28:31;;;;;;;2.45;1.52;;;7.30;99.90;;;;;;4703608;30;20409;-86
2022/11/19 10:31:14;;;;;;;1.13;1.10;;;7.40;99.90;;;;;;4703793;30;20408;-90
2022/11/19 10:34:53;;;;;;;0.80;0.80;;;7.30;99.90;;;;;;4704681;30;20520;-86
2022/11/19 10:37:22;;;;;;;1.08;1.02;;;7.30;99.90;;;;;;4703567;30;20060;-86
2022/11/19 10:39:56;;;;;;;0.90;0.90;;;7.30;99.90;;;;;;4724240;30;20056;-91
2022/11/19 10:42:41;;;;;;;0.90;0.90;;;7.20;99.90;;;;;;4737206;30;20053;-91
2022/11/19 10:45:30;;;;;;;1.08;1.02;;;7.30;99.90;;;;;;4689974;30;20049;-87
2022/11/19 10:48:06;;;;;;;1.65;1.35;;;7.40;99.90;;;;;;4703313;30;20049;-89
2022/11/19 10:50:36;;;;;;;1.17;1.10;;;7.40;99.90;;;;;;4689886;30;20504;-89
2022/11/19 10:53:35;;;;;;;1.13;1.02;;;7.40;99.90;;;;;;4706551;30;20426;-88
2022/11/19 10:56:14;;;;;;;0.95;0.93;;;7.30;99.90;;;;;;4717750;30;20048;-89
2022/11/19 10:58:53;;;;;;;0.82;0.80;;;7.40;99.90;;;;;;4703725;30;20060;-89
2022/11/19 11:01:31;;;;;;;0.70;0.70;;;7.30;99.90;;;;;;4645706;30;20065;-89
2022/11/19 11:04:33;;;;;;;1.05;1.05;;;7.30;99.90;;;;;;4669529;30;20054;-89
2022/11/19 11:07:03;;;;;;;1.10;0.95;;;7.40;99.90;;;;;;4696453;30;20108;-87
2022/11/19 11:09:43;;;;;;;0.70;0.70;;;7.40;99.90;;;;;;4685297;30;20061;-87
2022/11/19 11:15:23;;;;;;;0.65;0.65;;;7.80;99.90;;;;;;4697749;30;20457;-89
2022/11/19 11:18:09;;;;;;;0.70;0.70;;;7.70;99.90;;;;;;4670552;30;20057;-88
2022/11/19 11:20:45;;;;;;;2.47;1.13;;;7.70;99.90;;;;;;4685184;30;20041;-91
2022/11/19 11:23:24;;;;;;;0.80;0.80;;;7.70;99.90;;;;;;4670469;30;20408;-86
2022/11/19 11:26:13;;;;;;;0.70;0.70;;;7.60;99.90;;;;;;4699736;30;20065;-87
2022/11/19 11:29:16;;;;;;;0.88;0.88;;;7.70;99.90;;;;;;4638819;30;20053;-86
2022/11/19 11:31:46;;;;;;;1.13;1.00;;;7.70;99.90;;;;;;4641634;30;20099;-90
2022/11/19 11:34:48;;;;;;;4.10;0.82;;;7.70;99.90;;;;;;4693096;30;20053;-88
2022/11/19 11:37:23;;;;;;;2.00;0.90;;;7.70;99.90;;;;;;4714719;30;20056;-88
2022/11/19 11:39:54;;;;;;;0.80;0.80;;;7.60;99.90;;;;;;4719881;30;20056;-88
2022/11/19 11:42:30;;;;;;;1.20;1.13;;;7.50;99.90;;;;;;4703177;30;20057;-88
2022/11/19 11:44:59;;;;;;;1.38;0.93;;;7.50;99.90;;;;;;4708586;30;20049;-85
2022/11/19 11:47:38;;;;;;;0.70;0.70;;;7.50;99.90;;;;;;4702823;30;20062;-88
2022/11/19 11:50:13;;;;;;;1.42;0.73;;;7.50;99.90;;;;;;4732633;30;20499;-83
2022/11/19 11:52:56;;;;;;;0.73;0.73;;;7.50;99.90;;;;;;4734032;30;20062;-89
2022/11/19 11:55:26;;;;;;;3.13;2.15;;;7.50;99.90;;;;;;4739958;29;20059;-85
2022/11/19 11:58:04;;;;;;;0.80;0.80;;;7.50;99.90;;;;;;4705733;30;20063;-85
2022/11/19 12:00:43;;;;;;;0.75;0.70;;;7.60;99.90;;;;;;4733389;30;20515;-87
2022/11/19 12:03:14;;;;;;;0.90;0.90;;;8.00;99.90;;;;;;4722381;30;20056;-86
2022/11/19 12:06:14;;;;;;;3.63;1.20;;;8.20;99.90;;;;;;4734281;30;20067;-88
2022/11/19 12:08:48;;;;;;;0.70;0.70;;;8.30;99.90;;;;;;4719347;30;20507;-87
2022/11/19 12:11:53;;;;;;;0.85;0.85;;;8.50;99.90;;;;;;4719716;30;20407;-87
2022/11/19 12:18:52;;;;;;;1.60;1.50;;;8.20;99.90;;;;;;4626942;30;20062;-92
2022/11/19 12:21:36;;;;;;;0.65;0.65;;;7.80;99.90;;;;;;4646737;30;20066;-91
2022/11/19 12:30:47;;;;;;;1.17;1.08;;;7.50;99.90;;;;;;4490624;31;20051;-89
2022/11/19 12:39:30;;;;;;;3.10;1.15;;;7.30;99.90;;;;;;4525549;31;20054;-89
2022/11/19 12:42:40;;;;;;;0.93;0.93;;;7.10;99.90;;;;;;4548008;31;20137;-91
2022/11/19 12:45:35;;;;;;;1.17;0.67;;;6.90;99.90;;;;;;4591499;31;20051;-85
2022/11/19 12:48:46;;;;;;;0.70;0.70;;;6.90;99.90;;;;;;4592638;31;20048;-86
2022/11/19 12:51:36;;;;;;;0.80;0.80;;;7.00;99.90;;;;;;4621500;30;20046;-90
2022/11/19 12:54:43;;;;;;;1.67;0.82;;;7.30;99.90;;;;;;4713790;30;20061;-90
2022/11/19 12:58:06;;;;;;;0.85;0.85;;;7.30;99.90;;;;;;4702651;30;20060;-89
2022/11/19 13:00:43;;;;;;;0.70;0.70;;;7.40;99.90;;;;;;4653075;30;20074;-88
2022/11/19 13:04:06;;;;;;;0.68;0.68;;;7.70;99.90;;;;;;4694196;30;20056;-89
2022/11/19 13:06:50;;;;;;;0.70;0.70;;;7.70;99.90;;;;;;4687846;30;20060;-89
2022/11/19 13:09:59;;;;;;;0.90;0.85;;;7.90;99.90;;;;;;4669762;30;20056;-90
2022/11/19 13:13:37;;;;;;;1.60;1.50;;;7.70;99.90;;;;;;4696493;30;20041;-93
2022/11/19 13:16:13;;;;;;;1.75;0.88;;;7.60;99.90;;;;;;4705251;30;20388;-89
2022/11/19 13:18:55;;;;;;;1.25;0.80;;;7.30;99.90;;;;;;4674654;30;20395;-89
2022/11/19 13:22:12;;;;;;;0.82;0.82;;;7.20;99.90;;;;;;4659979;30;20053;-90
2022/11/19 13:25:37;;;;;;;2.80;1.70;;;7.20;99.90;;;;;;4695680;30;20068;-90
2022/11/19 13:28:28;;;;;;;;;;;7.20;99.90;;;;;;4675367;30;20064;-88
2022/11/19 13:31:04;;;;;;;0.70;0.70;;;7.20;99.90;;;;;;4670121;30;19934;-87
2022/11/19 13:33:52;;;;;;;0.70;0.70;;;7.20;99.90;;;;;;4687493;30;20052;-87
2022/11/19 13:36:34;;;;;;;0.80;0.80;;;7.10;99.90;;;;;;4698040;30;20252;-87
2022/11/19 13:39:34;;;;;;;0.80;0.80;;;7.10;99.90;;;;;;4689497;30;20055;-88
2022/11/19 13:44:51;;;;;;;2.97;2.78;;;7.10;99.90;;;;;;4651175;30;20054;-80
2022/11/19 13:47:58;;;;;;;1.35;1.20;;;7.10;99.90;;;;;;4651299;30;20057;-88
2022/11/19 13:50:57;;;;;;;;;;;;;;;;;;;;;
2022/11/19 13:53:44;;;;;;;0.82;0.82;;;7.10;99.90;;;;;;4652020;30;20051;-89
2022/11/19 13:56:16;;;;;;;1.20;1.10;;;7.10;99.90;;;;;;4651607;30;20089;-88
2022/11/19 13:58:59;;;;;;;1.77;0.88;;;7.10;99.90;;;;;;4652576;30;20062;-90
2022/11/19 14:01:58;;;;;;;1.13;1.02;;;7.10;99.90;;;;;;4651264;30;20054;-89
2022/11/19 14:04:45;;;;;;;1.15;0.80;;;7.20;99.90;;;;;;4622905;30;20059;-90
2022/11/19 14:07:30;;;;;;;1.67;1.13;;;7.20;99.90;;;;;;4629551;30;20096;-90
2022/11/19 14:10:14;;;;;;;1.15;1.05;;;7.30;99.90;;;;;;4652096;30;20066;-89
2022/11/19 14:13:13;;;;;;;0.70;0.70;;;7.50;99.90;;;;;;4651833;30;20058;-90
2022/11/19 14:27:28;;;;;;;0.70;0.70;;;7.30;99.90;;;;;;4653754;30;20540;-90
2022/11/19 14:30:00;;;;;;;1.63;0.85;;;7.10;99.90;;;;;;4690932;30;20166;-90
2022/11/19 14:32:29;;;;;;;;;;;7.00;99.90;;;;;;4700726;30;20042;-89
2022/11/19 14:35:03;;;;;;;1.25;1.15;;;6.90;99.90;;;;;;4685512;30;20293;-89
2022/11/19 14:37:40;;;;;;;1.15;1.05;;;6.90;99.90;;;;;;4672120;30;20756;-90
2022/11/19 14:40:17;;;;;;;0.80;0.80;;;6.90;99.90;;;;;;4699679;30;20053;-90
2022/11/19 14:46:12;;;;;;;1.15;0.90;;;6.60;99.90;;;;;;4719220;30;20053;-90
2022/11/19 14:48:40;;;;;;;1.10;1.05;;;6.60;99.90;;;;;;4702090;30;20057;-89